Time;durP1;ratioP1;P1;durP2;ratioP2;P2;SDS_P1;SDS_P2;PMS_P1;PMS_P2;Temp;Humidity;BMP_temperature;BMP_pressure;BME280_temperature;BME280_humidity;BME280_pressure;Samples;Min_cycle;Max_cycle;Signal;HPM_P1;HPM_P2
2022/01/20 00:03:07;;;;;;;28.98;5.90;;;5.50;99.90;;;;;;4145111;28;20413;-63
2022/01/20 00:07:44;;;;;;;24.70;5.80;;;5.40;99.90;;;;;;4143865;28;20030;-63
2022/01/20 00:25:57;;;;;;;20.55;4.85;;;5.40;99.90;;;;;;4142097;28;20474;-63
2022/01/20 00:28:10;;;;;;;25.92;4.72;;;5.40;99.90;;;;;;4147260;28;20033;-62
2022/01/20 00:33:22;;;;;;;17.80;4.40;;;5.40;99.90;;;;;;4147939;28;20034;-63
2022/01/20 00:35:12;;;;;;;24.33;5.05;;;5.40;99.90;;;;;;4133646;28;20038;-62
2022/01/20 00:37:16;;;;;;;25.08;4.60;;;5.40;99.90;;;;;;4147509;28;20034;-63
2022/01/20 00:39:17;;;;;;;17.77;4.60;;;5.40;99.90;;;;;;4147402;28;20397;-63
2022/01/20 00:41:17;;;;;;;22.15;4.40;;;5.40;99.90;;;;;;4145314;28;20128;-62
2022/01/20 00:43:18;;;;;;;18.63;4.15;;;5.40;99.90;;;;;;4147655;28;20421;-63
2022/01/20 00:45:19;;;;;;;16.75;4.10;;;5.40;99.90;;;;;;4145619;28;20042;-63
2022/01/20 00:47:19;;;;;;;28.17;5.25;;;5.40;99.90;;;;;;4146628;28;20038;-63
2022/01/20 00:49:20;;;;;;;18.48;4.38;;;5.40;99.90;;;;;;4146094;28;20378;-63
2022/01/20 00:51:23;;;;;;;17.88;4.38;;;5.30;99.90;;;;;;4147601;28;20412;-63
2022/01/20 00:53:24;;;;;;;;;;;5.30;99.90;;;;;;4141657;28;20453;-62
2022/01/20 00:55:24;;;;;;;24.88;4.03;;;5.20;99.90;;;;;;4145241;28;22926;-63
2022/01/20 00:57:25;;;;;;;27.85;4.50;;;5.20;99.90;;;;;;4145132;28;20121;-63
2022/01/20 00:59:27;;;;;;;26.40;4.82;;;5.30;99.90;;;;;;4146857;28;20041;-62
2022/01/20 01:01:28;;;;;;;21.20;3.88;;;5.20;99.90;;;;;;4145282;28;20042;-63
2022/01/20 01:03:28;;;;;;;23.45;4.13;;;5.20;99.90;;;;;;4145929;28;20045;-63
2022/01/20 01:05:29;;;;;;;19.60;3.60;;;5.20;99.90;;;;;;4145753;28;20481;-62
2022/01/20 01:07:48;;;;;;;24.73;4.68;;;5.20;99.90;;;;;;4147092;28;20065;-63
2022/01/20 01:09:49;;;;;;;23.35;4.35;;;5.20;99.90;;;;;;4145428;28;20053;-63
2022/01/20 01:11:52;;;;;;;23.20;4.85;;;5.20;99.90;;;;;;4142708;28;20034;-63
2022/01/20 01:13:53;;;;;;;22.60;4.53;;;5.20;99.90;;;;;;4146133;28;20527;-63
2022/01/20 01:15:54;;;;;;;29.67;5.00;;;5.20;99.90;;;;;;4145254;28;20441;-63
2022/01/20 01:20:17;;;;;;;21.02;4.28;;;5.20;99.90;;;;;;4138217;28;20474;-63
2022/01/20 01:24:18;;;;;;;23.00;4.22;;;5.10;99.90;;;;;;4146371;28;20491;-63
2022/01/20 01:26:21;;;;;;;22.83;4.30;;;5.20;99.90;;;;;;4144165;28;20049;-63
2022/01/20 01:28:26;;;;;;;21.02;4.40;;;5.20;99.90;;;;;;4142021;28;20473;-63
2022/01/20 01:32:45;;;;;;;26.10;4.65;;;5.20;99.90;;;;;;4146959;28;20040;-63
2022/01/20 01:34:50;;;;;;;23.52;5.18;;;5.20;99.90;;;;;;4146295;28;20064;-62
2022/01/20 01:39:00;;;;;;;22.52;3.92;;;5.20;99.90;;;;;;4144019;28;20057;-63
2022/01/20 01:41:00;;;;;;;24.95;4.60;;;5.20;99.90;;;;;;4146656;28;20038;-62
2022/01/20 01:43:07;;;;;;;16.30;3.83;;;5.20;99.90;;;;;;4145502;28;20449;-63
2022/01/20 01:45:27;;;;;;;23.00;4.25;;;5.20;99.90;;;;;;4143820;28;20050;-64
2022/01/20 01:47:27;;;;;;;16.88;3.63;;;5.20;99.90;;;;;;4145346;28;20034;-63
2022/01/20 01:49:28;;;;;;;28.30;4.78;;;5.20;99.90;;;;;;4145648;28;20125;-63
2022/01/20 01:51:29;;;;;;;20.63;4.38;;;5.20;99.90;;;;;;4146874;28;20044;-62
2022/01/20 01:53:29;;;;;;;17.55;3.65;;;5.20;99.90;;;;;;4145712;28;20092;-62
2022/01/20 01:55:31;;;;;;;20.83;4.07;;;5.20;99.90;;;;;;4143996;28;20038;-63
2022/01/20 01:57:32;;;;;;;20.60;4.38;;;5.20;99.90;;;;;;4145459;28;20451;-63
2022/01/20 01:59:33;;;;;;;24.98;4.53;;;5.20;99.90;;;;;;4143877;28;20124;-63
2022/01/20 02:01:36;;;;;;;21.77;4.13;;;5.20;99.90;;;;;;4142807;28;20029;-63
2022/01/20 02:03:45;;;;;;;22.58;4.32;;;5.20;99.90;;;;;;4142681;28;20046;-64
2022/01/20 02:06:09;;;;;;;24.63;3.80;;;5.20;99.90;;;;;;4144161;28;20033;-63
2022/01/20 02:08:28;;;;;;;22.23;4.25;;;5.20;99.90;;;;;;4144425;28;20042;-63
2022/01/20 02:19:56;;;;;;;21.73;3.92;;;5.20;99.90;;;;;;4140392;28;20500;-62
2022/01/20 02:22:02;;;;;;;24.90;4.68;;;5.10;99.90;;;;;;4141048;28;20043;-63
2022/01/20 02:24:03;;;;;;;20.60;4.15;;;5.10;99.90;;;;;;4141853;28;20042;-62
2022/01/20 02:26:03;;;;;;;14.02;3.42;;;5.10;99.90;;;;;;4145767;28;20108;-63
2022/01/20 02:28:07;;;;;;;24.33;4.15;;;5.10;99.90;;;;;;4145028;28;20042;-63
2022/01/20 02:30:08;;;;;;;23.92;3.95;;;5.10;99.90;;;;;;4142764;28;20042;-64
2022/01/20 02:32:09;;;;;;;35.03;5.20;;;5.00;99.90;;;;;;4140961;28;20065;-63
2022/01/20 02:34:12;;;;;;;22.35;3.78;;;5.00;99.90;;;;;;4144196;28;20555;-63
2022/01/20 02:36:16;;;;;;;20.13;3.97;;;5.10;99.90;;;;;;4143820;28;20108;-63
2022/01/20 02:45:01;;;;;;;28.08;4.15;;;5.10;99.90;;;;;;4143197;28;20473;-62
2022/01/20 02:47:02;;;;;;;18.33;3.15;;;5.10;99.90;;;;;;4144048;28;20060;-62
2022/01/20 02:49:04;;;;;;;24.48;4.05;;;5.10;99.90;;;;;;4145258;28;20046;-63
2022/01/20 02:51:05;;;;;;;12.35;3.10;;;5.00;99.90;;;;;;4144177;28;20068;-62
2022/01/20 02:53:06;;;;;;;18.10;3.35;;;5.00;99.90;;;;;;4145339;28;20363;-63
2022/01/20 02:55:07;;;;;;;17.20;3.20;;;5.00;99.90;;;;;;4142034;28;20041;-65
2022/01/20 02:57:07;;;;;;;19.38;3.53;;;5.00;99.90;;;;;;4144295;28;20041;-63
2022/01/20 02:59:08;;;;;;;16.63;3.25;;;5.00;99.90;;;;;;4145543;28;20413;-63
2022/01/20 03:01:09;;;;;;;16.50;3.20;;;5.00;99.90;;;;;;4145807;28;20041;-63
2022/01/20 03:03:10;;;;;;;18.10;3.42;;;5.00;99.90;;;;;;4144748;28;20033;-63
2022/01/20 03:05:11;;;;;;;13.57;2.70;;;5.00;99.90;;;;;;4145815;28;20204;-63
2022/01/20 03:07:11;;;;;;;13.90;3.05;;;5.00;99.90;;;;;;4143870;28;20530;-63
2022/01/20 03:09:12;;;;;;;11.15;2.95;;;5.00;99.90;;;;;;4146135;28;20038;-63
2022/01/20 03:11:13;;;;;;;13.45;2.65;;;5.00;99.90;;;;;;4144652;28;20479;-63
2022/01/20 03:13:13;;;;;;;14.05;2.78;;;5.00;99.90;;;;;;4144743;28;20037;-63
2022/01/20 03:15:14;;;;;;;16.98;3.38;;;5.00;99.90;;;;;;4142051;28;20112;-63
2022/01/20 03:17:15;;;;;;;16.13;3.03;;;5.00;99.90;;;;;;4146477;28;20054;-62
2022/01/20 03:19:17;;;;;;;14.80;2.97;;;5.00;99.90;;;;;;4144243;28;20065;-65
2022/01/20 03:21:17;;;;;;;13.52;2.80;;;5.00;99.90;;;;;;4142268;28;20469;-63
2022/01/20 03:23:18;;;;;;;17.70;3.00;;;5.00;99.90;;;;;;4144353;28;20034;-63
2022/01/20 03:25:18;;;;;;;21.88;3.60;;;5.10;99.90;;;;;;4144499;28;20116;-63
2022/01/20 03:27:19;;;;;;;15.15;3.38;;;5.00;99.90;;;;;;4145597;28;20092;-64
2022/01/20 03:29:20;;;;;;;23.42;4.13;;;5.00;99.90;;;;;;4143433;28;20515;-62
2022/01/20 03:31:20;;;;;;;11.23;2.83;;;5.00;99.90;;;;;;4144102;28;20038;-62
2022/01/20 03:33:21;;;;;;;18.73;3.25;;;5.00;99.90;;;;;;4143871;28;20057;-62
2022/01/20 03:35:21;;;;;;;13.60;2.83;;;5.10;99.90;;;;;;4143900;28;20394;-62
2022/01/20 03:37:22;;;;;;;24.35;3.40;;;5.00;99.90;;;;;;4144585;28;20049;-63
2022/01/20 03:39:23;;;;;;;23.50;3.60;;;5.00;99.90;;;;;;4143880;28;20046;-64
2022/01/20 03:41:23;;;;;;;17.73;3.83;;;5.00;99.90;;;;;;4143578;28;20386;-63
2022/01/20 03:43:24;;;;;;;19.17;3.55;;;5.00;99.90;;;;;;4142666;28;20054;-62
2022/01/20 03:45:26;;;;;;;15.07;2.70;;;5.00;99.90;;;;;;4144039;28;20038;-62
2022/01/20 03:47:27;;;;;;;;;;;5.00;99.90;;;;;;4145755;28;20050;-62
2022/01/20 03:49:37;;;;;;;21.92;3.38;;;5.00;99.90;;;;;;4148030;28;19961;-62
2022/01/20 03:51:38;;;;;;;16.00;2.88;;;5.00;99.90;;;;;;4148197;28;20038;-63
2022/01/20 03:53:38;;;;;;;13.25;2.83;;;5.00;99.90;;;;;;4148169;28;20448;-63
2022/01/20 03:55:39;;;;;;;16.33;2.92;;;5.00;99.90;;;;;;4145230;28;20045;-63
2022/01/20 03:57:39;;;;;;;13.48;2.05;;;5.00;99.90;;;;;;4147257;28;20100;-63
2022/01/20 03:59:40;;;;;;;10.13;1.98;;;5.00;99.90;;;;;;4148207;28;20057;-63
2022/01/20 04:01:41;;;;;;;8.77;1.70;;;5.00;99.90;;;;;;4147165;28;20034;-63
2022/01/20 04:03:42;;;;;;;10.20;2.25;;;5.00;99.90;;;;;;4147235;28;20041;-63
2022/01/20 04:06:00;;;;;;;8.45;2.05;;;4.90;99.90;;;;;;4145973;28;20052;-63
2022/01/20 04:08:01;;;;;;;6.30;1.67;;;4.90;99.90;;;;;;4148925;28;20034;-63
2022/01/20 04:10:02;;;;;;;6.90;1.55;;;4.90;99.90;;;;;;4148221;28;20042;-62
2022/01/20 04:12:03;;;;;;;13.27;2.80;;;4.90;99.90;;;;;;4147151;28;20491;-62
2022/01/20 04:14:04;;;;;;;9.10;2.60;;;5.00;99.90;;;;;;4146966;28;20049;-62
2022/01/20 04:16:13;;;;;;;11.73;2.58;;;4.90;99.90;;;;;;4148001;28;20493;-63
2022/01/20 04:18:20;;;;;;;17.63;3.80;;;4.90;99.90;;;;;;4146258;28;20089;-63
2022/01/20 04:20:21;;;;;;;11.30;2.05;;;4.90;99.90;;;;;;4145220;28;20041;-62
2022/01/20 04:22:24;;;;;;;16.20;2.47;;;4.90;99.90;;;;;;4148608;28;20489;-63
2022/01/20 04:24:25;;;;;;;13.00;2.65;;;5.00;99.90;;;;;;4146729;28;20117;-62
2022/01/20 04:26:26;;;;;;;26.05;2.58;;;5.00;99.90;;;;;;4145863;28;20033;-62
2022/01/20 04:28:27;;;;;;;15.05;2.85;;;5.00;99.90;;;;;;4143851;28;20037;-62
2022/01/20 04:30:29;;;;;;;13.25;2.90;;;5.00;99.90;;;;;;4146962;28;20077;-62
2022/01/20 04:32:30;;;;;;;10.63;2.65;;;5.10;99.90;;;;;;4146911;28;20066;-62
2022/01/20 04:34:30;;;;;;;13.25;3.00;;;5.10;99.90;;;;;;4146578;28;20046;-63
2022/01/20 04:36:35;;;;;;;15.52;2.63;;;5.10;99.90;;;;;;4145847;28;20389;-62
2022/01/20 04:38:35;;;;;;;16.90;3.38;;;5.10;99.90;;;;;;4144205;28;20041;-62
2022/01/20 04:40:41;;;;;;;12.30;2.35;;;5.10;99.90;;;;;;4147680;28;20045;-63
2022/01/20 04:42:44;;;;;;;12.18;2.65;;;5.10;99.90;;;;;;4143871;28;20034;-64
2022/01/20 04:44:54;;;;;;;17.10;3.60;;;5.10;99.90;;;;;;4146811;28;20045;-63
2022/01/20 04:47:10;;;;;;;14.63;2.92;;;5.10;99.90;;;;;;4145407;28;20034;-62
2022/01/20 04:58:29;;;;;;;16.65;2.95;;;5.00;99.90;;;;;;4146028;28;20070;-62
2022/01/20 05:00:30;;;;;;;23.75;3.13;;;5.00;99.90;;;;;;4146682;28;20053;-63
2022/01/20 05:02:30;;;;;;;14.82;2.60;;;5.00;99.90;;;;;;4144909;28;20030;-63
2022/01/20 05:04:31;;;;;;;22.55;3.60;;;5.00;99.90;;;;;;4146425;28;20384;-62
2022/01/20 05:06:32;;;;;;;16.35;3.35;;;5.00;99.90;;;;;;4145069;28;20050;-62
2022/01/20 05:08:32;;;;;;;22.02;3.50;;;5.00;99.90;;;;;;4145169;28;20473;-62
2022/01/20 05:10:34;;;;;;;18.80;2.95;;;5.00;99.90;;;;;;4145102;28;20049;-62
2022/01/20 05:14:54;;;;;;;15.48;3.13;;;5.00;99.90;;;;;;4146123;28;20044;-62
2022/01/20 05:16:56;;;;;;;21.05;3.10;;;5.00;99.90;;;;;;4145386;28;20048;-62
2022/01/20 05:18:56;;;;;;;17.17;2.88;;;5.00;99.90;;;;;;4145165;28;20042;-62
2022/01/20 05:20:57;;;;;;;18.45;3.13;;;5.10;99.90;;;;;;4144990;28;20123;-62
2022/01/20 05:22:58;;;;;;;20.05;3.20;;;5.10;99.90;;;;;;4146463;28;20454;-63
2022/01/20 05:24:58;;;;;;;20.58;3.50;;;5.00;99.90;;;;;;4142936;28;20037;-62
2022/01/20 05:26:59;;;;;;;12.18;2.65;;;5.10;99.90;;;;;;4145000;28;20049;-62
2022/01/20 05:29:00;;;;;;;20.77;4.10;;;5.10;99.90;;;;;;4146769;28;20045;-62
2022/01/20 05:31:00;;;;;;;13.98;2.85;;;5.10;99.90;;;;;;4143731;28;20045;-61
2022/01/20 05:33:01;;;;;;;17.70;3.28;;;5.10;99.90;;;;;;4144284;28;20072;-62
2022/01/20 05:35:02;;;;;;;16.67;3.20;;;5.10;99.90;;;;;;4145332;28;20393;-63
2022/01/20 05:37:03;;;;;;;11.50;2.20;;;5.10;99.90;;;;;;4146509;28;20044;-62
2022/01/20 05:39:04;;;;;;;16.98;3.30;;;5.10;99.90;;;;;;4145028;28;20130;-62
2022/01/20 05:41:05;;;;;;;14.55;2.80;;;5.10;99.90;;;;;;4145179;28;20140;-62
2022/01/20 05:43:05;;;;;;;14.23;2.35;;;5.10;99.90;;;;;;4143630;28;20495;-62
2022/01/20 05:45:06;;;;;;;16.85;2.60;;;5.10;99.90;;;;;;4145484;28;20386;-62
2022/01/20 05:47:11;;;;;;;11.82;2.00;;;5.00;99.90;;;;;;4145201;28;20137;-62
2022/01/20 05:49:20;;;;;;;9.23;1.98;;;5.00;99.90;;;;;;4145202;28;20054;-62
2022/01/20 05:51:21;;;;;;;11.88;2.33;;;5.00;99.90;;;;;;4144782;28;20147;-63
2022/01/20 05:53:21;;;;;;;16.92;3.60;;;5.00;99.90;;;;;;4145909;28;20046;-62
2022/01/20 05:55:22;;;;;;;11.05;2.20;;;5.00;99.90;;;;;;4145879;28;20481;-63
2022/01/20 05:57:23;;;;;;;15.05;2.03;;;4.90;99.90;;;;;;4144611;28;20085;-62
2022/01/20 05:59:23;;;;;;;11.63;2.22;;;4.90;99.90;;;;;;4147241;28;20682;-62
2022/01/20 06:01:24;;;;;;;8.65;1.90;;;4.90;99.90;;;;;;4143867;28;20041;-62
2022/01/20 06:03:36;;;;;;;11.55;2.33;;;4.90;99.90;;;;;;4142993;28;20046;-62
2022/01/20 06:05:38;;;;;;;16.17;3.08;;;4.90;99.90;;;;;;4141908;28;20693;-63
2022/01/20 06:07:38;;;;;;;15.38;2.55;;;4.90;99.90;;;;;;4143260;28;20042;-66
2022/01/20 06:09:39;;;;;;;22.33;3.40;;;4.90;99.90;;;;;;4142940;28;20081;-63
2022/01/20 06:11:40;;;;;;;16.45;2.83;;;4.90;99.90;;;;;;4142218;28;20481;-63
2022/01/20 06:13:40;;;;;;;16.00;2.60;;;4.90;99.90;;;;;;4142445;28;20203;-63
2022/01/20 06:15:41;;;;;;;13.82;2.80;;;5.00;99.90;;;;;;4143452;28;20038;-62
2022/01/20 06:17:42;;;;;;;15.07;3.17;;;4.90;99.90;;;;;;4142376;28;20511;-63
2022/01/20 06:19:43;;;;;;;13.77;1.95;;;4.90;99.90;;;;;;4142620;28;20054;-63
2022/01/20 06:21:45;;;;;;;14.88;2.65;;;4.90;99.90;;;;;;4143387;28;20103;-63
2022/01/20 06:23:47;;;;;;;15.55;3.03;;;4.90;99.90;;;;;;4139675;28;20080;-62
2022/01/20 06:25:47;;;;;;;11.00;2.15;;;5.00;99.90;;;;;;4141657;28;20053;-63
2022/01/20 06:27:49;;;;;;;19.17;3.13;;;5.00;99.90;;;;;;4137536;28;20397;-62
2022/01/20 06:29:50;;;;;;;7.53;2.17;;;5.00;99.90;;;;;;4137911;28;20451;-63
2022/01/20 06:31:50;;;;;;;14.77;2.70;;;5.00;99.90;;;;;;4142886;28;20062;-62
2022/01/20 06:33:51;;;;;;;20.40;3.35;;;5.00;99.90;;;;;;4139130;28;20072;-63
2022/01/20 06:35:51;;;;;;;14.05;2.72;;;5.00;99.90;;;;;;4142536;28;20116;-62
2022/01/20 06:37:52;;;;;;;25.90;3.47;;;5.00;99.90;;;;;;4142393;28;20469;-62
2022/01/20 06:39:53;;;;;;;14.45;3.10;;;4.90;99.90;;;;;;4142699;28;20046;-62
2022/01/20 06:41:53;;;;;;;29.13;3.67;;;4.90;99.90;;;;;;4141633;28;20172;-62
2022/01/20 06:43:54;;;;;;;14.60;2.35;;;4.90;99.90;;;;;;4142811;28;20046;-62
2022/01/20 06:45:55;;;;;;;18.42;3.22;;;4.90;99.90;;;;;;4141145;28;20026;-62
2022/01/20 06:47:55;;;;;;;26.08;4.13;;;4.90;99.90;;;;;;4141795;28;20453;-62
2022/01/20 06:49:56;;;;;;;15.65;3.10;;;4.90;99.90;;;;;;4142515;28;20042;-62
2022/01/20 06:51:57;;;;;;;14.23;2.95;;;4.90;99.90;;;;;;4142411;28;20381;-62
2022/01/20 06:53:58;;;;;;;18.58;3.53;;;4.90;99.90;;;;;;4140275;28;20053;-62
2022/01/20 06:55:59;;;;;;;19.50;3.42;;;4.90;99.90;;;;;;4141857;28;20050;-62
2022/01/20 06:58:00;;;;;;;20.67;3.85;;;4.90;99.90;;;;;;4141661;28;20038;-62
2022/01/20 07:00:03;;;;;;;21.88;3.65;;;4.90;99.90;;;;;;4142317;28;20049;-62
2022/01/20 07:02:04;;;;;;;13.93;3.33;;;4.90;99.90;;;;;;4142040;28;20034;-62
2022/01/20 07:04:05;;;;;;;18.30;3.30;;;4.90;99.90;;;;;;4141648;28;20161;-62
2022/01/20 07:06:05;;;;;;;19.23;3.40;;;4.80;99.90;;;;;;4143073;28;20089;-62
2022/01/20 07:08:06;;;;;;;15.57;2.85;;;4.90;99.90;;;;;;4142711;28;20132;-62
2022/01/20 07:10:08;;;;;;;19.60;3.78;;;4.90;99.90;;;;;;4142883;28;20038;-64
2022/01/20 07:12:10;;;;;;;22.33;3.42;;;4.90;99.90;;;;;;4142724;28;20042;-65
2022/01/20 07:14:11;;;;;;;16.35;2.88;;;4.90;99.90;;;;;;4153785;28;20045;-63
2022/01/20 07:16:11;;;;;;;19.05;3.58;;;4.90;99.90;;;;;;4149678;28;20046;-63
2022/01/20 07:18:12;;;;;;;21.73;3.33;;;4.90;99.90;;;;;;4154822;28;20587;-63
2022/01/20 07:20:13;;;;;;;12.63;2.92;;;4.90;99.90;;;;;;4158074;28;20139;-63
2022/01/20 07:22:14;;;;;;;19.27;3.55;;;4.90;99.90;;;;;;4158416;28;20038;-63
2022/01/20 07:24:14;;;;;;;14.05;3.53;;;4.90;99.90;;;;;;4160191;28;20403;-63
2022/01/20 07:26:15;;;;;;;30.33;3.67;;;5.00;99.90;;;;;;4161550;28;20052;-62
2022/01/20 07:28:16;;;;;;;14.98;2.75;;;4.90;99.90;;;;;;4161725;28;20508;-63
2022/01/20 07:30:16;;;;;;;11.25;2.60;;;4.90;99.90;;;;;;4160122;28;20093;-63
2022/01/20 07:32:17;;;;;;;15.43;2.67;;;4.90;99.90;;;;;;4161730;28;20069;-63
2022/01/20 07:34:18;;;;;;;13.93;2.88;;;5.00;99.90;;;;;;4159351;28;20053;-63
2022/01/20 07:36:18;;;;;;;12.45;3.05;;;5.00;99.90;;;;;;4158497;28;20045;-63
2022/01/20 07:38:19;;;;;;;13.88;2.63;;;5.00;99.90;;;;;;4160507;28;20443;-63
2022/01/20 07:40:20;;;;;;;13.25;2.75;;;5.00;99.90;;;;;;4160892;28;20064;-63
2022/01/20 07:42:21;;;;;;;14.32;3.20;;;5.00;99.90;;;;;;4160968;28;20110;-63
2022/01/20 07:44:21;;;;;;;16.85;3.30;;;5.00;99.90;;;;;;4158467;28;20049;-63
2022/01/20 07:46:22;;;;;;;12.18;3.05;;;5.10;99.90;;;;;;4157830;28;20141;-62
2022/01/20 07:48:23;;;;;;;17.27;3.58;;;5.00;99.90;;;;;;4159878;28;20041;-63
2022/01/20 07:50:23;;;;;;;13.88;3.97;;;5.10;99.90;;;;;;4159573;28;20049;-63
2022/01/20 07:52:24;;;;;;;19.55;4.28;;;5.10;99.90;;;;;;4160807;28;20041;-63
2022/01/20 07:54:25;;;;;;;17.73;4.20;;;5.10;99.90;;;;;;4161129;28;20392;-63
2022/01/20 07:56:25;;;;;;;14.77;3.58;;;5.10;99.90;;;;;;4159557;28;20818;-63
2022/01/20 07:58:26;;;;;;;12.30;2.78;;;5.10;99.90;;;;;;4160145;28;20037;-63
2022/01/20 08:00:27;;;;;;;14.80;3.33;;;5.10;99.90;;;;;;4158790;28;20029;-63
2022/01/20 08:02:27;;;;;;;14.98;3.03;;;5.00;99.90;;;;;;4160625;28;20124;-63
2022/01/20 08:04:28;;;;;;;15.60;2.95;;;5.00;99.90;;;;;;4158531;28;20033;-63
2022/01/20 08:06:28;;;;;;;20.73;3.83;;;5.10;99.90;;;;;;4159872;28;20045;-63
2022/01/20 08:08:29;;;;;;;13.40;3.10;;;5.00;99.90;;;;;;4159772;28;20116;-63
2022/01/20 08:10:30;;;;;;;17.90;3.60;;;5.00;99.90;;;;;;4158007;28;20055;-62
2022/01/20 08:12:31;;;;;;;21.58;4.05;;;4.90;99.90;;;;;;4160934;28;20037;-62
2022/01/20 08:14:32;;;;;;;12.50;2.67;;;4.90;99.90;;;;;;4154729;28;20033;-63
2022/01/20 08:16:32;;;;;;;8.27;2.50;;;4.90;99.90;;;;;;4160326;28;20046;-62
2022/01/20 08:18:34;;;;;;;11.45;2.80;;;4.80;99.90;;;;;;4161655;28;20042;-63
2022/01/20 08:20:35;;;;;;;9.83;3.00;;;4.80;99.90;;;;;;4158603;28;20381;-63
2022/01/20 08:22:36;;;;;;;11.77;1.95;;;4.90;99.90;;;;;;4162109;28;20044;-63
2022/01/20 08:24:36;;;;;;;16.75;3.10;;;4.90;99.90;;;;;;4155854;28;20041;-63
2022/01/20 08:26:37;;;;;;;13.43;2.42;;;4.90;99.90;;;;;;4161119;28;20046;-63
2022/01/20 08:28:38;;;;;;;16.17;3.10;;;4.80;99.90;;;;;;4161233;28;20057;-63
2022/01/20 08:30:39;;;;;;;9.82;2.72;;;4.80;99.90;;;;;;4160527;28;20495;-63
2022/01/20 08:32:40;;;;;;;16.80;3.08;;;4.90;99.90;;;;;;4160880;28;20046;-63
2022/01/20 08:34:41;;;;;;;13.88;2.58;;;4.80;99.90;;;;;;4159754;28;21401;-63
2022/01/20 08:36:42;;;;;;;8.85;2.20;;;4.80;99.90;;;;;;4160633;28;20056;-63
2022/01/20 08:38:43;;;;;;;13.88;2.72;;;4.80;99.90;;;;;;4161716;28;20399;-63
2022/01/20 08:40:44;;;;;;;7.60;2.03;;;4.80;99.90;;;;;;4160483;28;20125;-63
2022/01/20 08:42:46;;;;;;;19.73;2.88;;;4.90;99.90;;;;;;4159687;28;20068;-63
2022/01/20 08:44:47;;;;;;;9.90;2.08;;;4.90;99.90;;;;;;4159637;28;20041;-63
2022/01/20 08:46:48;;;;;;;9.40;2.20;;;4.90;99.90;;;;;;4158674;28;20041;-63
2022/01/20 08:48:48;;;;;;;14.73;2.63;;;4.90;99.90;;;;;;4161090;28;20053;-63
2022/01/20 08:50:49;;;;;;;13.68;2.47;;;4.90;99.90;;;;;;4159384;28;20156;-63
2022/01/20 08:52:50;;;;;;;9.50;2.08;;;5.00;99.90;;;;;;4156940;28;20056;-63
2022/01/20 08:54:51;;;;;;;10.35;2.15;;;5.00;99.90;;;;;;4159256;28;20501;-63
2022/01/20 08:56:53;;;;;;;7.43;1.88;;;5.00;99.90;;;;;;4147414;28;20038;-63
2022/01/20 08:58:53;;;;;;;5.88;1.48;;;5.00;99.90;;;;;;4161236;28;20132;-63
2022/01/20 09:00:54;;;;;;;14.25;2.42;;;5.10;99.90;;;;;;4150164;28;20061;-63
2022/01/20 09:02:54;;;;;;;7.43;2.58;;;5.10;99.90;;;;;;4158308;28;20052;-63
2022/01/20 09:04:55;;;;;;;10.30;1.95;;;5.10;99.90;;;;;;4141323;28;20532;-63
2022/01/20 09:06:56;;;;;;;9.15;2.15;;;5.00;99.90;;;;;;4127355;28;20037;-63
2022/01/20 09:08:57;;;;;;;7.57;2.15;;;5.10;99.90;;;;;;4120494;28;20049;-63
2022/01/20 09:10:57;;;;;;;5.85;1.48;;;5.10;99.90;;;;;;4127010;28;20042;-63
2022/01/20 09:15:30;;;;;;;12.10;1.80;;;5.10;99.90;;;;;;4113928;28;20053;-63
2022/01/20 09:17:31;;;;;;;7.40;1.52;;;5.10;99.90;;;;;;4126513;28;20496;-63
2022/01/20 09:19:32;;;;;;;9.02;1.65;;;5.10;99.90;;;;;;4119797;28;20825;-63
2022/01/20 09:21:33;;;;;;;9.93;1.58;;;5.10;99.90;;;;;;4127571;28;20060;-63
2022/01/20 09:23:33;;;;;;;6.70;1.88;;;5.10;99.90;;;;;;4147311;28;20042;-63
2022/01/20 09:25:35;;;;;;;6.85;1.70;;;5.10;99.90;;;;;;4160288;28;20426;-63
2022/01/20 09:27:35;;;;;;;12.18;2.17;;;5.10;99.90;;;;;;4161622;28;20168;-63
2022/01/20 09:29:36;;;;;;;8.32;1.90;;;5.10;99.90;;;;;;4145554;28;20073;-63
2022/01/20 09:31:37;;;;;;;8.93;1.90;;;5.00;99.90;;;;;;4143476;28;20462;-63
2022/01/20 09:33:39;;;;;;;9.93;2.17;;;5.00;99.90;;;;;;4143431;28;20057;-63
2022/01/20 09:35:42;;;;;;;8.97;1.90;;;5.00;99.90;;;;;;4143560;28;20030;-63
2022/01/20 09:37:42;;;;;;;15.18;2.60;;;5.00;99.90;;;;;;4147952;28;20045;-64
2022/01/20 09:39:45;;;;;;;14.55;2.42;;;5.00;99.90;;;;;;4145129;28;20511;-64
2022/01/20 09:41:46;;;;;;;22.63;3.13;;;5.00;99.90;;;;;;4148025;28;20957;-64
2022/01/20 09:43:46;;;;;;;12.63;2.55;;;5.00;99.90;;;;;;4159453;28;20053;-63
2022/01/20 09:45:53;;;;;;;11.90;2.33;;;5.00;99.90;;;;;;4159484;28;20048;-63
2022/01/20 09:47:55;;;;;;;11.18;1.90;;;4.90;99.90;;;;;;4159427;28;20128;-63
2022/01/20 09:49:55;;;;;;;15.75;2.75;;;5.00;99.90;;;;;;4160940;28;20075;-63
2022/01/20 09:51:56;;;;;;;16.40;2.58;;;4.90;99.90;;;;;;4159359;28;20044;-63
2022/01/20 09:53:57;;;;;;;13.73;2.10;;;4.90;99.90;;;;;;4160242;28;20034;-63
2022/01/20 09:55:57;;;;;;;14.13;3.22;;;5.00;99.90;;;;;;4160559;28;20037;-63
2022/01/20 09:57:58;;;;;;;13.57;2.47;;;5.00;99.90;;;;;;4159253;28;20436;-63
2022/01/20 10:00:00;;;;;;;10.32;2.35;;;5.00;99.90;;;;;;4157534;28;20041;-63
2022/01/20 10:02:00;;;;;;;7.97;1.75;;;5.00;99.90;;;;;;4143559;28;20048;-63
2022/01/20 10:04:01;;;;;;;8.70;2.20;;;5.10;99.90;;;;;;4144066;28;20037;-63
2022/01/20 10:06:02;;;;;;;13.55;2.40;;;5.10;99.90;;;;;;4143316;28;20502;-63
2022/01/20 10:08:04;;;;;;;6.65;1.95;;;5.20;99.90;;;;;;4144001;28;20038;-63
2022/01/20 10:10:05;;;;;;;8.15;1.77;;;5.40;99.90;;;;;;4143247;28;20057;-64
2022/01/20 10:12:08;;;;;;;10.18;2.08;;;5.50;99.90;;;;;;4143169;28;20034;-63
2022/01/20 10:14:08;;;;;;;7.95;1.98;;;5.60;99.90;;;;;;4142582;28;20042;-63
2022/01/20 10:16:14;;;;;;;10.18;2.22;;;5.60;99.90;;;;;;4142890;28;20531;-63
2022/01/20 10:18:15;;;;;;;11.20;2.13;;;5.50;99.90;;;;;;4143029;28;20087;-64
2022/01/20 10:20:16;;;;;;;13.63;2.42;;;5.50;99.90;;;;;;4138784;28;20786;-64
2022/01/20 10:22:23;;;;;;;7.78;2.53;;;5.40;99.90;;;;;;4156400;28;20029;-63
2022/01/20 10:24:26;;;;;;;10.98;2.70;;;5.50;99.90;;;;;;4157365;28;20033;-63
2022/01/20 10:26:27;;;;;;;15.93;3.20;;;5.50;99.90;;;;;;4158812;28;20029;-63
2022/01/20 10:28:27;;;;;;;8.27;2.65;;;5.50;99.90;;;;;;4158997;28;20044;-63
2022/01/20 10:30:33;;;;;;;12.20;2.50;;;5.50;99.90;;;;;;4158707;28;20439;-63
2022/01/20 10:32:50;;;;;;;14.13;2.72;;;5.50;99.90;;;;;;4159293;28;20428;-63
2022/01/20 10:35:02;;;;;;;15.30;3.58;;;5.40;99.90;;;;;;4142185;28;20045;-63
2022/01/20 10:37:13;;;;;;;10.77;2.57;;;5.50;99.90;;;;;;4142146;28;20045;-63
2022/01/20 10:39:14;;;;;;;11.52;2.40;;;5.40;99.90;;;;;;4159779;28;20045;-64
2022/01/20 10:41:33;;;;;;;21.45;3.70;;;5.50;99.90;;;;;;4158399;28;20049;-64
2022/01/20 10:43:35;;;;;;;17.40;3.42;;;5.50;99.90;;;;;;4157912;28;20044;-63
2022/01/20 10:45:36;;;;;;;13.13;2.67;;;5.40;99.90;;;;;;4159197;28;20041;-63
2022/01/20 10:47:36;;;;;;;12.23;3.35;;;5.40;99.90;;;;;;4158980;28;20037;-63
2022/01/20 10:49:37;;;;;;;13.43;3.80;;;5.40;99.90;;;;;;4159951;28;20037;-63
2022/01/20 10:51:38;;;;;;;13.20;4.07;;;5.50;99.90;;;;;;4157154;28;20041;-63
2022/01/20 10:53:38;;;;;;;14.38;3.78;;;5.50;99.90;;;;;;4156779;28;21186;-63
2022/01/20 10:55:39;;;;;;;17.52;3.17;;;5.40;99.90;;;;;;4157051;28;20042;-63
2022/01/20 10:57:39;;;;;;;21.27;3.58;;;5.40;99.90;;;;;;4159442;28;20037;-64
2022/01/20 10:59:53;;;;;;;16.15;4.03;;;5.40;99.90;;;;;;4159093;28;20121;-64
2022/01/20 11:02:09;;;;;;;17.77;4.07;;;5.30;99.90;;;;;;4156695;28;20067;-64
2022/01/20 11:04:10;;;;;;;17.50;3.30;;;5.30;99.90;;;;;;4159080;28;20041;-64
2022/01/20 11:06:11;;;;;;;17.17;3.45;;;5.30;99.90;;;;;;4157134;28;20044;-64
2022/01/20 11:08:13;;;;;;;15.65;3.40;;;5.30;99.90;;;;;;4159440;28;20053;-64
2022/01/20 11:10:16;;;;;;;11.77;4.35;;;5.30;99.90;;;;;;4157830;28;20049;-64
2022/01/20 11:12:17;;;;;;;;;;;5.30;99.90;;;;;;4158104;28;20088;-64
2022/01/20 11:14:18;;;;;;;12.20;3.92;;;5.40;99.90;;;;;;4158131;28;20000;-64
2022/01/20 11:16:21;;;;;;;18.38;3.55;;;5.50;99.90;;;;;;4158538;28;20080;-64
2022/01/20 11:18:29;;;;;;;11.43;2.88;;;5.50;99.90;;;;;;4157865;28;20496;-63
2022/01/20 11:20:46;;;;;;;10.43;2.42;;;5.50;99.90;;;;;;4156596;28;20049;-62
2022/01/20 11:22:59;;;;;;;12.75;2.38;;;5.60;99.90;;;;;;4155741;28;20107;-63
2022/01/20 11:25:07;;;;;;;14.10;2.83;;;5.70;99.90;;;;;;4158521;28;20048;-63
2022/01/20 11:27:13;;;;;;;22.58;3.63;;;5.60;99.90;;;;;;4159119;28;20038;-63
2022/01/20 11:29:13;;;;;;;13.73;3.00;;;5.60;99.90;;;;;;4159372;28;20053;-63
2022/01/20 11:31:14;;;;;;;16.20;3.45;;;5.60;99.90;;;;;;4157615;28;20061;-63
2022/01/20 11:33:16;;;;;;;14.65;3.20;;;5.60;99.90;;;;;;4158061;28;20611;-64
2022/01/20 11:35:18;;;;;;;9.03;2.43;;;5.60;99.90;;;;;;4156152;28;20269;-63
2022/01/20 11:37:23;;;;;;;14.50;3.47;;;5.60;99.90;;;;;;4159699;28;20041;-62
2022/01/20 11:39:25;;;;;;;18.27;3.78;;;5.60;99.90;;;;;;4159285;28;20373;-62